createdAt,value
2017-12-26T00:00:45.990Z,97831.90
2017-12-26T00:03:14.935Z,97827.11
2017-12-26T00:05:43.475Z,97826.34
2017-12-26T00:08:11.801Z,97822.52
2017-12-26T00:10:41.326Z,97818.83
2017-12-26T00:13:10.670Z,97820.80
2017-12-26T00:15:39.676Z,97820.98
2017-12-26T00:18:08.127Z,97814.08
2017-12-26T00:20:37.107Z,97815.53
2017-12-26T00:23:06.378Z,97815.93
2017-12-26T00:25:35.346Z,97815.61
2017-12-26T00:28:04.222Z,97803.02
2017-12-26T00:30:33.513Z,97796.88
2017-12-26T00:33:01.906Z,97791.64
2017-12-26T00:35:30.728Z,97792.38
2017-12-26T00:37:59.225Z,97787.28
2017-12-26T00:40:28.285Z,97794.73
2017-12-26T00:42:57.348Z,97788.06
2017-12-26T00:45:26.570Z,97779.98
2017-12-26T00:47:55.041Z,97780.31
2017-12-26T00:50:24.080Z,97776.54
2017-12-26T00:52:53.694Z,97774.34
2017-12-26T00:55:22.064Z,97778.92
2017-12-26T00:57:51.062Z,97771.66
2017-12-26T01:00:19.407Z,97765.63
2017-12-26T01:02:49.356Z,97766.20
2017-12-26T01:05:18.385Z,97760.41
2017-12-26T01:07:47.605Z,97754.27
2017-12-26T01:10:17.300Z,97763.59
2017-12-26T01:12:45.644Z,97757.67
2017-12-26T01:15:14.887Z,97760.34
2017-12-26T01:17:43.549Z,97758.75
2017-12-26T01:20:12.109Z,97755.17
2017-12-26T01:22:41.220Z,97756.38
2017-12-26T01:25:10.501Z,97757.33
2017-12-26T01:27:39.071Z,97750.95
2017-12-26T01:30:07.652Z,97747.61
2017-12-26T01:32:36.085Z,97750.03
2017-12-26T01:35:04.474Z,97745.75
2017-12-26T01:37:33.364Z,97742.94
2017-12-26T01:40:02.526Z,97740.80
2017-12-26T01:42:31.409Z,97741.14
2017-12-26T01:44:59.781Z,97736.28
2017-12-26T01:47:29.749Z,97730.69
2017-12-26T01:49:58.113Z,97724.72
2017-12-26T01:52:27.060Z,97720.80
2017-12-26T01:54:55.551Z,97717.31
2017-12-26T01:57:24.424Z,97712.42
2017-12-26T01:59:53.582Z,97707.41
2017-12-26T02:02:22.014Z,97697.30
2017-12-26T02:04:50.956Z,97704.27
2017-12-26T02:07:19.877Z,97700.13
2017-12-26T02:09:48.331Z,97701.48
2017-12-26T02:12:19.100Z,97694.58
2017-12-26T02:14:48.184Z,97694.18
2017-12-26T02:17:17.033Z,97690.59
2017-12-26T02:19:46.455Z,97679.61
2017-12-26T02:22:16.106Z,97683.45
2017-12-26T02:24:44.465Z,97681.85
2017-12-26T02:27:12.849Z,97677.38
2017-12-26T02:29:41.183Z,97671.48
2017-12-26T02:32:10.147Z,97671.19
2017-12-26T02:34:38.589Z,97668.98
2017-12-26T02:37:07.072Z,97664.17
2017-12-26T02:39:35.397Z,97662.16
2017-12-26T02:42:06.566Z,97660.55
2017-12-26T02:44:35.480Z,97658.83
2017-12-26T02:47:04.859Z,97653.98
2017-12-26T02:49:33.876Z,97649.72
2017-12-26T02:52:02.958Z,97645.97
2017-12-26T02:54:31.865Z,97639.28
2017-12-26T02:57:00.440Z,97634.81
2017-12-26T02:59:28.761Z,97624.66
2017-12-26T03:01:57.088Z,97626.78
2017-12-26T03:04:25.955Z,97626.00
2017-12-26T03:06:55.005Z,97625.23
2017-12-26T03:09:23.335Z,97624.52
2017-12-26T03:11:51.806Z,97623.86
2017-12-26T03:14:20.877Z,97615.05
2017-12-26T03:16:49.388Z,97606.52
2017-12-26T03:19:18.192Z,97599.33
2017-12-26T03:21:46.508Z,97602.97
2017-12-26T03:24:14.848Z,97606.55
2017-12-26T03:26:43.748Z,97603.75
2017-12-26T03:29:12.592Z,97593.77
2017-12-26T03:31:40.924Z,97595.30
2017-12-26T03:34:09.396Z,97585.05
2017-12-26T03:36:38.504Z,97581.52
2017-12-26T03:39:07.196Z,97591.72
2017-12-26T03:41:35.963Z,97580.13
2017-12-26T03:44:04.800Z,97579.88
2017-12-26T03:46:33.167Z,97578.66
2017-12-26T03:49:01.633Z,97572.20
2017-12-26T03:51:30.456Z,97563.68
2017-12-26T03:53:58.816Z,97559.85
2017-12-26T03:56:27.245Z,97560.14
2017-12-26T03:58:57.053Z,97559.42
2017-12-26T04:01:25.456Z,97553.70
2017-12-26T04:03:54.488Z,97551.09
2017-12-26T04:06:23.505Z,97550.03
2017-12-26T04:08:59.536Z,97549.12
2017-12-26T04:11:28.343Z,97541.52
2017-12-26T04:13:57.330Z,97539.73
2017-12-26T04:16:25.709Z,97547.84
2017-12-26T04:18:54.694Z,97536.48
2017-12-26T04:21:23.103Z,97534.77
2017-12-26T04:23:52.903Z,97536.36
2017-12-26T04:26:21.277Z,97525.77
2017-12-26T04:28:51.884Z,97521.81
2017-12-26T04:31:20.979Z,97520.12
2017-12-26T04:33:49.308Z,97514.35
2017-12-26T04:36:17.760Z,97505.89
2017-12-26T04:38:47.639Z,97509.34
2017-12-26T04:41:16.716Z,97511.91
2017-12-26T04:43:45.232Z,97503.88
2017-12-26T04:46:14.094Z,97507.58
2017-12-26T04:48:43.195Z,97502.82
2017-12-26T04:51:12.116Z,97507.69
2017-12-26T04:53:40.496Z,97504.06
2017-12-26T04:56:10.201Z,97500.31
2017-12-26T04:58:38.644Z,97495.43
2017-12-26T05:01:10.261Z,97490.86
2017-12-26T05:03:39.248Z,97490.34
2017-12-26T05:06:07.589Z,97485.77
2017-12-26T05:08:36.680Z,97492.22
2017-12-26T05:11:05.736Z,97486.99
2017-12-26T05:13:34.092Z,97485.98
2017-12-26T05:16:02.988Z,97484.73
2017-12-26T05:18:31.305Z,97490.58
2017-12-26T05:21:00.446Z,97481.62
2017-12-26T05:23:28.940Z,97489.17
2017-12-26T05:25:58.004Z,97483.94
2017-12-26T05:28:26.926Z,97482.28
2017-12-26T05:30:55.388Z,97480.63
2017-12-26T05:33:24.275Z,97474.02
2017-12-26T05:35:52.632Z,97476.59
2017-12-26T05:38:21.393Z,97479.30
2017-12-26T05:40:50.161Z,97467.00
2017-12-26T05:43:19.245Z,97480.75
2017-12-26T05:45:47.931Z,97478.31
2017-12-26T05:48:16.572Z,97473.24
2017-12-26T05:50:45.480Z,97466.20
2017-12-26T05:53:13.865Z,97473.45
2017-12-26T05:55:43.040Z,97460.63
2017-12-26T05:58:11.983Z,97460.94
2017-12-26T06:00:40.644Z,97467.88
2017-12-26T06:03:09.380Z,97461.19
2017-12-26T06:05:37.768Z,97458.67
2017-12-26T06:08:06.792Z,97453.66
2017-12-26T06:10:35.207Z,97463.05
2017-12-26T06:13:04.099Z,97446.35
2017-12-26T06:15:32.522Z,97439.03
2017-12-26T06:18:00.844Z,97440.34
2017-12-26T06:20:29.746Z,97429.01
2017-12-26T06:22:58.175Z,97437.84
2017-12-26T06:25:26.581Z,97431.97
2017-12-26T06:27:55.564Z,97429.52
2017-12-26T06:30:24.677Z,97418.40
2017-12-26T06:32:53.283Z,97427.38
2017-12-26T06:35:21.839Z,97428.29
2017-12-26T06:37:50.260Z,97430.48
2017-12-26T06:40:19.221Z,97426.34
2017-12-26T06:42:47.564Z,97428.57
2017-12-26T06:45:16.557Z,97426.23
2017-12-26T06:47:44.893Z,97406.16
2017-12-26T06:50:13.306Z,97405.76
2017-12-26T06:52:42.316Z,97415.60
2017-12-26T06:55:10.640Z,97405.52
2017-12-26T06:57:39.821Z,97407.16
2017-12-26T07:00:08.208Z,97394.27
2017-12-26T07:02:36.979Z,97392.83
2017-12-26T07:05:05.306Z,97388.32
2017-12-26T07:07:34.344Z,97392.88
2017-12-26T07:10:02.769Z,97385.48
2017-12-26T07:12:31.332Z,97380.86
2017-12-26T07:15:01.344Z,97378.25
2017-12-26T07:17:31.412Z,97376.45
2017-12-26T07:20:00.660Z,97368.72
2017-12-26T07:22:29.968Z,97362.54
2017-12-26T07:24:58.839Z,97368.35
2017-12-26T07:27:27.161Z,97373.34
2017-12-26T07:29:56.265Z,97370.52
2017-12-26T07:32:25.471Z,97366.78
2017-12-26T07:34:53.860Z,97379.56
2017-12-26T07:37:28.712Z,97373.76
2017-12-26T07:39:57.567Z,97379.78
2017-12-26T07:42:25.986Z,97377.22
2017-12-26T07:44:54.928Z,97378.92
2017-12-26T07:47:23.737Z,97366.61
2017-12-26T07:49:53.148Z,97362.87
2017-12-26T07:52:21.577Z,97354.53
2017-12-26T07:54:50.358Z,97351.35
2017-12-26T07:57:18.747Z,97342.44
2017-12-26T07:59:47.064Z,97336.25
2017-12-26T08:02:16.189Z,97328.88
2017-12-26T08:04:45.203Z,97333.81
2017-12-26T08:07:13.528Z,97326.37
2017-12-26T08:09:42.068Z,97321.25
2017-12-26T08:12:11.005Z,97323.36
2017-12-26T08:14:39.512Z,97324.73
2017-12-26T08:17:07.908Z,97322.03
2017-12-26T08:19:36.243Z,97322.30
2017-12-26T08:22:06.477Z,97314.23
2017-12-26T08:24:35.592Z,97317.05
2017-12-26T08:27:04.017Z,97324.12
2017-12-26T08:29:32.889Z,97323.37
2017-12-26T08:32:01.264Z,97326.83
2017-12-26T08:34:30.236Z,97318.33
2017-12-26T08:36:58.685Z,97304.89
2017-12-26T08:39:27.727Z,97304.91
2017-12-26T08:41:56.254Z,97301.38
2017-12-26T08:44:25.049Z,97299.74
2017-12-26T08:46:54.168Z,97296.83
2017-12-26T08:49:23.088Z,97293.91
2017-12-26T08:51:51.497Z,97285.34
2017-12-26T08:54:20.002Z,97282.81
2017-12-26T08:56:48.892Z,97272.78
2017-12-26T08:59:17.952Z,97272.56
2017-12-26T09:01:46.752Z,97259.56
2017-12-26T09:04:15.704Z,97261.75
2017-12-26T09:06:44.599Z,97261.25
2017-12-26T09:09:12.912Z,97259.02
2017-12-26T09:11:41.292Z,97258.06
2017-12-26T09:14:10.121Z,97259.10
2017-12-26T09:16:39.260Z,97256.16
2017-12-26T09:19:08.393Z,97256.89
2017-12-26T09:21:37.501Z,97262.39
2017-12-26T09:24:06.427Z,97265.21
2017-12-26T09:26:34.739Z,97269.48
2017-12-26T09:29:03.144Z,97268.69
2017-12-26T09:31:31.739Z,97271.56
2017-12-26T09:34:01.554Z,97269.05
2017-12-26T09:36:30.431Z,97272.68
2017-12-26T09:39:00.168Z,97258.33
2017-12-26T09:41:28.488Z,97245.28
2017-12-26T09:43:57.752Z,97243.93
2017-12-26T09:46:26.776Z,97249.17
2017-12-26T09:48:56.720Z,97248.02
2017-12-26T09:51:25.477Z,97251.06
2017-12-26T09:53:54.736Z,97245.97
2017-12-26T09:56:23.067Z,97235.80
2017-12-26T09:58:52.342Z,97235.39
2017-12-26T10:01:20.716Z,97237.09
2017-12-26T10:03:49.024Z,97247.02
2017-12-26T10:06:17.804Z,97253.97
2017-12-26T10:08:47.034Z,97251.39
2017-12-26T10:11:15.552Z,97245.84
2017-12-26T10:13:44.268Z,97234.46
2017-12-26T10:16:12.585Z,97233.89
2017-12-26T10:18:41.687Z,97230.23
2017-12-26T10:21:10.593Z,97236.31
2017-12-26T10:23:38.976Z,97229.67
2017-12-26T10:26:07.361Z,97237.48
2017-12-26T10:28:35.681Z,97233.34
2017-12-26T10:31:04.597Z,97240.48
2017-12-26T10:33:33.789Z,97232.05
2017-12-26T10:36:02.189Z,97236.06
2017-12-26T10:38:31.168Z,97241.06
2017-12-26T10:41:00.262Z,97236.64
2017-12-26T10:43:30.088Z,97239.36
2017-12-26T10:45:58.571Z,97245.55
2017-12-26T10:48:27.365Z,97250.61
2017-12-26T10:50:55.770Z,97244.78
2017-12-26T10:53:24.217Z,97219.81
2017-12-26T10:55:53.821Z,97223.41
2017-12-26T10:58:23.067Z,97231.44
2017-12-26T11:00:52.905Z,97233.49
2017-12-26T11:03:24.085Z,97230.09
2017-12-26T11:05:54.450Z,97231.17
2017-12-26T11:08:23.387Z,97241.73
2017-12-26T11:10:52.638Z,97238.11
2017-12-26T11:13:20.961Z,97237.53
2017-12-26T11:15:50.145Z,97234.37
2017-12-26T11:18:19.256Z,97207.45
2017-12-26T11:20:48.349Z,97234.53
2017-12-26T11:23:17.346Z,97237.41
2017-12-26T11:25:46.774Z,97239.05
2017-12-26T11:28:15.185Z,97245.22
2017-12-26T11:30:43.813Z,97262.75
2017-12-26T11:33:12.918Z,97259.33
2017-12-26T11:35:41.813Z,97266.87
2017-12-26T11:38:10.212Z,97269.94
2017-12-26T11:40:38.662Z,97276.77
2017-12-26T11:43:07.469Z,97289.32
2017-12-26T11:45:36.710Z,97274.39
2017-12-26T11:48:05.820Z,97284.30
2017-12-26T11:50:34.887Z,97296.45
2017-12-26T11:53:03.995Z,97293.63
2017-12-26T11:55:32.459Z,97292.53
2017-12-26T11:58:01.404Z,97313.87
2017-12-26T12:00:30.381Z,97309.30
2017-12-26T12:02:59.513Z,97297.78
2017-12-26T12:05:28.385Z,97325.12
2017-12-26T12:08:01.102Z,97331.48
2017-12-26T12:10:30.138Z,97335.69
2017-12-26T12:12:59.254Z,97313.28
2017-12-26T12:15:28.509Z,97347.27
2017-12-26T12:17:57.441Z,97342.27
2017-12-26T12:20:26.477Z,97355.39
2017-12-26T12:22:55.162Z,97354.38
2017-12-26T12:25:23.864Z,97357.31
2017-12-26T12:27:52.186Z,97372.19
2017-12-26T12:30:21.294Z,97376.30
2017-12-26T12:32:49.801Z,97389.13
2017-12-26T12:35:18.582Z,97385.80
2017-12-26T12:37:47.167Z,97390.68
2017-12-26T12:40:16.057Z,97395.18
2017-12-26T12:42:45.234Z,97401.44
2017-12-26T12:45:14.231Z,97398.11
2017-12-26T12:47:42.913Z,97401.13
2017-12-26T12:50:11.225Z,97406.11
2017-12-26T12:52:40.811Z,97416.64
2017-12-26T12:55:09.721Z,97416.25
2017-12-26T12:57:38.041Z,97407.36
2017-12-26T13:00:07.289Z,97416.91
2017-12-26T13:02:36.081Z,97422.20
2017-12-26T13:05:04.971Z,97426.83
2017-12-26T13:07:33.677Z,97427.67
2017-12-26T13:10:02.705Z,97423.83
2017-12-26T13:12:31.020Z,97428.27
2017-12-26T13:15:00.115Z,97419.62
2017-12-26T13:17:29.133Z,97419.76
2017-12-26T13:19:58.285Z,97409.56
2017-12-26T13:22:27.600Z,97414.63
2017-12-26T13:24:56.652Z,97411.10
2017-12-26T13:27:25.701Z,97402.11
2017-12-26T13:29:54.458Z,97400.55
2017-12-26T13:32:23.110Z,97384.41
2017-12-26T13:34:51.518Z,97391.80
2017-12-26T13:37:20.333Z,97377.89
2017-12-26T13:39:48.771Z,97372.36
2017-12-26T13:42:17.146Z,97380.69
2017-12-26T13:44:45.860Z,97378.31
2017-12-26T13:47:14.389Z,97376.41
2017-12-26T13:49:42.747Z,97379.34
2017-12-26T13:52:11.749Z,97379.08
2017-12-26T13:54:40.210Z,97382.82
2017-12-26T13:57:09.370Z,97382.36
2017-12-26T13:59:37.679Z,97379.61
2017-12-26T14:02:06.500Z,97387.14
2017-12-26T14:04:34.928Z,97383.44
2017-12-26T14:07:03.783Z,97377.64
2017-12-26T14:09:33.031Z,97381.03
2017-12-26T14:12:02.160Z,97378.06
2017-12-26T14:14:31.080Z,97370.83
2017-12-26T14:16:59.458Z,97375.11
2017-12-26T14:19:28.586Z,97367.84
2017-12-26T14:21:57.624Z,97357.93
2017-12-26T14:24:25.940Z,97365.13
2017-12-26T14:26:54.464Z,97361.53
2017-12-26T14:29:23.272Z,97358.95
2017-12-26T14:31:51.626Z,97358.05
2017-12-26T14:34:20.736Z,97354.23
2017-12-26T14:36:49.824Z,97336.88
2017-12-26T14:39:18.724Z,97342.13
2017-12-26T14:41:48.107Z,97342.36
2017-12-26T14:44:16.569Z,97338.14
2017-12-26T14:46:45.267Z,97341.94
2017-12-26T14:49:13.618Z,97340.58
2017-12-26T14:51:42.056Z,97337.48
2017-12-26T14:54:10.672Z,97330.66
2017-12-26T14:56:40.069Z,97336.55
2017-12-26T14:59:08.416Z,97334.68
2017-12-26T15:01:37.180Z,97329.45
2017-12-26T15:04:05.766Z,97327.09
2017-12-26T15:06:34.872Z,97323.41
2017-12-26T15:09:03.472Z,97317.76
2017-12-26T15:11:32.332Z,97311.75
2017-12-26T15:14:01.338Z,97310.41
2017-12-26T15:16:30.260Z,97319.91
2017-12-26T15:18:58.624Z,97320.61
2017-12-26T15:21:27.964Z,97318.20
2017-12-26T15:23:56.855Z,97319.04
2017-12-26T15:26:25.157Z,97325.73
2017-12-26T15:28:53.597Z,97327.67
2017-12-26T15:31:22.633Z,97332.91
2017-12-26T15:33:51.317Z,97334.95
2017-12-26T15:36:21.237Z,97342.69
2017-12-26T15:38:51.976Z,97346.14
2017-12-26T15:41:22.281Z,97341.59
2017-12-26T15:43:50.808Z,97343.33
2017-12-26T15:46:20.363Z,97339.20
2017-12-26T15:48:48.722Z,97343.52
2017-12-26T15:51:17.622Z,97334.44
2017-12-26T15:53:45.968Z,97339.16
2017-12-26T15:56:14.416Z,97337.75
2017-12-26T15:58:43.352Z,97343.91
2017-12-26T16:01:11.677Z,97339.20
2017-12-26T16:03:40.889Z,97339.79
2017-12-26T16:06:09.984Z,97338.28
2017-12-26T16:08:38.932Z,97342.50
2017-12-26T16:11:07.347Z,97335.91
2017-12-26T16:13:36.351Z,97332.36
2017-12-26T16:16:05.603Z,97335.41
2017-12-26T16:18:34.585Z,97332.45
2017-12-26T16:21:03.456Z,97326.02
2017-12-26T16:23:31.844Z,97323.47
2017-12-26T16:26:00.187Z,97322.05
2017-12-26T16:28:29.247Z,97318.48
2017-12-26T16:30:58.369Z,97312.00
2017-12-26T16:33:26.870Z,97311.75
2017-12-26T16:35:55.685Z,97309.55
2017-12-26T16:38:24.901Z,97305.30
2017-12-26T16:40:54.099Z,97307.88
2017-12-26T16:43:22.642Z,97301.77
2017-12-26T16:45:54.646Z,97301.68
2017-12-26T16:48:23.625Z,97296.73
2017-12-26T16:50:51.996Z,97289.90
2017-12-26T16:53:20.464Z,97295.01
2017-12-26T16:55:49.437Z,97293.77
2017-12-26T16:58:18.239Z,97288.09
2017-12-26T17:00:47.521Z,97283.62
2017-12-26T17:03:15.914Z,97286.86
2017-12-26T17:05:44.851Z,97283.95
2017-12-26T17:08:13.332Z,97284.51
2017-12-26T17:10:42.214Z,97281.42
2017-12-26T17:13:11.485Z,97269.56
2017-12-26T17:15:40.457Z,97271.05
2017-12-26T17:18:08.841Z,97265.86
2017-12-26T17:20:37.793Z,97264.05
2017-12-26T17:23:06.213Z,97268.47
2017-12-26T17:25:35.243Z,97261.08
2017-12-26T17:28:04.314Z,97251.59
2017-12-26T17:30:33.327Z,97258.16
2017-12-26T17:33:01.687Z,97251.52
2017-12-26T17:35:30.305Z,97246.55
2017-12-26T17:37:59.085Z,97238.20
2017-12-26T17:40:27.989Z,97234.05
2017-12-26T17:42:56.414Z,97230.36
2017-12-26T17:45:25.565Z,97226.73
2017-12-26T17:48:08.526Z,97223.47
2017-12-26T17:50:37.345Z,97208.67
2017-12-26T17:53:05.852Z,97202.08
2017-12-26T17:55:34.224Z,97196.05
2017-12-26T17:58:03.012Z,97196.44
2017-12-26T18:00:31.378Z,97199.47
2017-12-26T18:02:59.973Z,97200.47
2017-12-26T18:05:28.436Z,97203.62
2017-12-26T18:07:58.035Z,97207.02
2017-12-26T18:10:27.080Z,97195.56
2017-12-26T18:12:55.428Z,97192.67
2017-12-26T18:15:23.832Z,97188.05
2017-12-26T18:17:52.706Z,97197.13
2017-12-26T18:20:22.202Z,97186.67
2017-12-26T18:22:50.805Z,97181.02
2017-12-26T18:25:19.267Z,97183.47
2017-12-26T18:27:47.855Z,97176.86
2017-12-26T18:32:52.013Z,97171.83
2017-12-26T18:35:20.558Z,97170.52
2017-12-26T18:37:49.758Z,97169.56
2017-12-26T18:40:19.441Z,97173.34
2017-12-26T18:42:47.751Z,97155.37
2017-12-26T18:45:16.867Z,97161.97
2017-12-26T18:47:45.272Z,97160.93
2017-12-26T18:50:14.753Z,97153.94
2017-12-26T18:52:44.763Z,97158.08
2017-12-26T18:55:13.440Z,97150.30
2017-12-26T18:57:43.247Z,97149.96
2017-12-26T19:00:12.321Z,97141.72
2017-12-26T19:02:41.568Z,97132.73
2017-12-26T19:05:10.499Z,97131.09
2017-12-26T19:07:38.798Z,97126.86
2017-12-26T19:10:08.724Z,97117.12
2017-12-26T19:12:37.278Z,97114.92
2017-12-26T19:15:06.017Z,97110.06
2017-12-26T19:17:34.409Z,97093.44
2017-12-26T19:20:02.962Z,97098.61
2017-12-26T19:22:31.711Z,97092.80
2017-12-26T19:25:00.165Z,97091.01
2017-12-26T19:27:28.517Z,97084.87
2017-12-26T19:29:57.753Z,97083.00
2017-12-26T19:32:27.287Z,97079.08
2017-12-26T19:34:56.373Z,97079.78
2017-12-26T19:37:25.403Z,97076.73
2017-12-26T19:39:53.724Z,97064.50
2017-12-26T19:42:22.804Z,97057.13
2017-12-26T19:44:51.194Z,97054.91
2017-12-26T19:47:19.519Z,97048.53
2017-12-26T19:49:47.898Z,97044.28
2017-12-26T19:52:17.197Z,97032.83
2017-12-26T19:54:46.339Z,97034.14
2017-12-26T19:57:14.727Z,97028.70
2017-12-26T19:59:43.152Z,97024.17
2017-12-26T20:02:11.500Z,97013.87
2017-12-26T20:04:39.905Z,97016.53
2017-12-26T20:07:08.434Z,97014.83
2017-12-26T20:09:36.872Z,97012.45
2017-12-26T20:12:05.323Z,96998.94
2017-12-26T20:14:33.696Z,96994.19
2017-12-26T20:17:02.163Z,96986.94
2017-12-26T20:19:30.548Z,96973.64
2017-12-26T20:21:58.953Z,96976.13
2017-12-26T20:24:27.378Z,96976.26
2017-12-26T20:26:56.887Z,96975.44
2017-12-26T20:29:25.291Z,96971.45
2017-12-26T20:31:53.816Z,96965.66
2017-12-26T20:34:22.186Z,96959.53
2017-12-26T20:36:51.319Z,96954.14
2017-12-26T20:39:19.800Z,96944.78
2017-12-26T20:41:48.177Z,96938.67
2017-12-26T20:44:16.553Z,96941.48
2017-12-26T20:46:45.014Z,96929.18
2017-12-26T20:49:14.101Z,96924.77
2017-12-26T20:51:43.302Z,96921.84
2017-12-26T20:54:11.824Z,96912.66
2017-12-26T20:56:40.199Z,96905.83
2017-12-26T20:59:08.569Z,96903.59
2017-12-26T21:01:37.018Z,96896.30
2017-12-26T21:04:05.421Z,96893.55
2017-12-26T21:06:33.832Z,96888.92
2017-12-26T21:09:02.267Z,96882.58
2017-12-26T21:11:30.743Z,96874.07
2017-12-26T21:13:59.111Z,96866.20
2017-12-26T21:16:28.419Z,96869.66
2017-12-26T21:18:57.572Z,96864.09
2017-12-26T21:21:25.956Z,96856.30
2017-12-26T21:23:54.395Z,96850.02
2017-12-26T21:26:22.779Z,96840.69
2017-12-26T21:28:51.240Z,96828.23
2017-12-26T21:31:20.438Z,96822.75
2017-12-26T21:33:48.819Z,96831.33
2017-12-26T21:36:17.201Z,96819.52
2017-12-26T21:38:45.981Z,96817.40
2017-12-26T21:41:15.166Z,96815.93
2017-12-26T21:43:43.552Z,96813.20
2017-12-26T21:46:12.751Z,96808.63
2017-12-26T21:48:41.140Z,96803.37
2017-12-26T21:51:10.298Z,96800.89
2017-12-26T21:53:38.761Z,96795.95
2017-12-26T21:56:07.139Z,96793.58
2017-12-26T21:58:35.511Z,96791.84
2017-12-26T22:01:03.929Z,96790.44
2017-12-26T22:03:32.303Z,96783.79
2017-12-26T22:06:00.683Z,96779.08
2017-12-26T22:08:29.147Z,96774.14
2017-12-26T22:10:57.529Z,96772.56
2017-12-26T22:13:25.907Z,96773.58
2017-12-26T22:15:54.342Z,96769.82
2017-12-26T22:18:23.344Z,96765.27
2017-12-26T22:20:52.186Z,96756.90
2017-12-26T22:23:21.323Z,96758.92
2017-12-26T22:25:50.457Z,96751.87
2017-12-26T22:28:19.487Z,96745.27
2017-12-26T22:30:48.588Z,96745.79
2017-12-26T22:33:17.458Z,96742.22
2017-12-26T22:35:46.330Z,96736.77
2017-12-26T22:38:15.167Z,96736.47
2017-12-26T22:40:43.948Z,96728.73
2017-12-26T22:43:12.782Z,96716.04
2017-12-26T22:45:41.513Z,96708.36
2017-12-26T22:48:10.709Z,96703.69
2017-12-26T22:50:39.358Z,96698.91
2017-12-26T22:53:07.973Z,96693.59
2017-12-26T22:55:37.115Z,96690.63
2017-12-26T22:58:06.160Z,96687.25
2017-12-26T23:00:35.285Z,96675.68
2017-12-26T23:03:04.437Z,96675.14
2017-12-26T23:05:33.455Z,96669.65
2017-12-26T23:08:02.555Z,96656.52
2017-12-26T23:10:31.001Z,96650.03
2017-12-26T23:12:59.967Z,96645.11
2017-12-26T23:15:34.466Z,96642.61
2017-12-26T23:18:08.581Z,96639.02
2017-12-26T23:20:43.529Z,96630.86
2017-12-26T23:23:17.882Z,96628.99
2017-12-26T23:25:52.322Z,96614.21
2017-12-26T23:28:26.929Z,96604.09
2017-12-26T23:31:01.879Z,96605.75
2017-12-26T23:33:35.792Z,96614.17
2017-12-26T23:36:10.861Z,96609.33
2017-12-26T23:52:14.518Z,96571.13
2017-12-26T23:54:48.328Z,96566.91
2017-12-26T23:57:23.176Z,96554.67
2017-12-26T23:59:57.727Z,96548.14
